createdAt,value
2023-01-18T06:58:25.092Z,100048.66
2023-01-18T06:59:36.866Z,100046.38
2023-01-18T07:00:44.106Z,100048.31
2023-01-18T07:01:55.249Z,100049.94
2023-01-18T07:03:02.572Z,100048.47
2023-01-18T07:04:20.429Z,100045.41
2023-01-18T07:05:29.064Z,100045.22
2023-01-18T07:06:42.375Z,100045.88
2023-01-18T19:47:13.072Z,100011.28
2023-01-18T19:48:23.269Z,100014.66
2023-01-18T19:49:34.936Z,100019.94
2023-01-18T19:50:48.030Z,100019.28
2023-01-18T19:52:02.444Z,100009.50
2023-01-18T19:53:07.919Z,100021.22
2023-01-18T19:54:14.558Z,100011.09
2023-01-18T19:55:20.596Z,100009.97
2023-01-18T19:56:29.817Z,99995.22
2023-01-18T19:57:36.884Z,99997.47
2023-01-18T19:58:42.764Z,99999.22
2023-01-18T19:59:53.508Z,100005.00
2023-01-18T20:01:01.567Z,99997.13
2023-01-18T20:02:06.959Z,100003.72
2023-01-18T20:03:14.080Z,99986.72
2023-01-18T20:04:18.577Z,99992.81
2023-01-18T20:05:31.472Z,100002.88
2023-01-18T20:08:36.772Z,100006.75
2023-01-18T20:09:52.139Z,100006.75
2023-01-18T20:11:24.935Z,99991.88
2023-01-18T20:17:29.691Z,99996.00
2023-01-18T20:18:39.046Z,99989.44
2023-01-18T20:21:36.146Z,99978.81
2023-01-18T20:22:41.957Z,99986.53
2023-01-18T20:23:50.995Z,99999.38
2023-01-18T20:24:59.739Z,99973.53
2023-01-18T20:26:12.707Z,99982.50
2023-01-18T20:27:23.798Z,99990.00
2023-01-18T20:28:36.947Z,99983.13
2023-01-18T20:29:46.127Z,99982.94
2023-01-18T20:30:55.592Z,99991.47
2023-01-18T20:32:14.121Z,99981.53
2023-01-18T20:33:19.378Z,99988.56
2023-01-18T20:34:22.310Z,99969.47
2023-01-18T20:36:13.718Z,99972.53
2023-01-18T20:42:07.278Z,99969.81
2023-01-18T20:43:13.677Z,99979.41
2023-01-18T20:44:25.015Z,99965.56
2023-01-18T20:45:37.717Z,99991.91
2023-01-18T20:46:44.524Z,99975.25
2023-01-18T20:47:53.109Z,99975.75
2023-01-18T21:48:54.839Z,99933.25
2023-01-18T21:50:26.854Z,99937.09
2023-01-18T21:51:51.163Z,99928.41
